METAR Formatted Surface Weather Observation
Issued by NWS

Home | Current Version | Previous Version | Text Only | Print | Product List | Glossary On
Versions: 1 2 3 4 5 6 7 8 9 10 11 12 13 14 15 16 17 18 19 20 21 22 23 24 25 26 27 28 29 30
563
SAUS44 KLIX 220856 COR
MTRBVE
METAR KBVE 220851Z AUTO 13003KT 3SM BR FEW023 OVC028 21/20 A3026 RMK
AO2 SLP247 T02060200 56007



USA.gov is the U.S. government's official web portal to all federal, state and local government web resources and services.